Time;durP1;ratioP1;P1;durP2;ratioP2;P2;SDS_P1;SDS_P2;PMS_P1;PMS_P2;Temp;Humidity;BMP_temperature;BMP_pressure;BME280_temperature;BME280_humidity;BME280_pressure;Samples;Min_cycle;Max_cycle;Signal;HPM_P1;HPM_P2
2023/07/05 00:00:16;;;;;;;;;12.25;12.25;;;;;41.20;41.73;100173.38;5038808;28;45791;-70
2023/07/05 00:02:41;;;;;;;;;11.50;11.50;;;;;41.12;40.60;100178.31;5038658;28;45262;-73
2023/07/05 00:05:07;;;;;;;;;10.25;10.25;;;;;41.03;39.93;100185.50;5037865;28;45250;-72
2023/07/05 00:07:33;;;;;;;;;10.50;10.50;;;;;40.00;42.16;100195.13;5037331;28;45323;-71
2023/07/05 00:09:59;;;;;;;;;9.75;9.75;;;;;39.87;42.41;100190.97;5038431;28;45257;-73
2023/07/05 00:12:24;;;;;;;;;11.25;10.50;;;;;39.58;42.64;100201.50;5041718;28;45262;-70
2023/07/05 00:14:49;;;;;;;;;10.00;10.00;;;;;39.46;43.13;100203.63;5040211;28;45205;-73
2023/07/05 00:17:15;;;;;;;;;10.25;10.25;;;;;39.35;42.18;100202.69;5040530;28;45229;-73
2023/07/05 00:19:41;;;;;;;;;11.75;11.75;;;;;39.28;43.16;100205.66;5038998;28;54650;-77
2023/07/05 00:22:06;;;;;;;;;9.00;9.00;;;;;39.22;42.62;100223.19;5039358;28;45159;-71
2023/07/05 00:24:32;;;;;;;;;11.25;11.25;;;;;39.05;43.13;100204.91;5044724;28;45362;-71
2023/07/05 00:26:57;;;;;;;;;12.00;12.00;;;;;39.14;41.82;100208.81;5044825;28;44793;-72
2023/07/05 00:29:22;;;;;;;;;14.50;14.00;;;;;39.52;41.53;100228.13;5040466;28;45348;-72
2023/07/05 00:31:48;;;;;;;;;13.75;13.25;;;;;39.33;41.50;100222.19;5040787;28;45912;-71
2023/07/05 00:34:13;;;;;;;;;11.75;11.25;;;;;39.19;41.44;100223.72;5040999;28;45450;-75
2023/07/05 00:36:39;;;;;;;;;12.50;12.50;;;;;38.96;41.22;100228.47;5041281;28;45369;-71
2023/07/05 00:39:04;;;;;;;;;11.75;11.50;;;;;38.71;42.04;100222.44;5040143;28;45479;-75
2023/07/05 00:41:29;;;;;;;;;12.25;12.25;;;;;38.75;41.66;100230.16;5039174;28;45356;-72
2023/07/05 00:43:54;;;;;;;;;13.00;13.00;;;;;38.72;41.92;100220.50;5039283;28;46711;-70
2023/07/05 00:46:27;;;;;;;;;9.50;9.50;;;;;38.56;41.69;100239.59;5038522;28;45383;-71
2023/07/05 00:49:03;;;;;;;;;9.50;9.50;;;;;38.61;41.77;100233.31;5038441;28;45332;-73
2023/07/05 00:51:56;;;;;;;;;9.75;9.75;;;;;38.53;41.12;100220.03;5038447;28;45285;-75
2023/07/05 00:54:27;;;;;;;;;10.50;10.50;;;;;38.75;40.60;100243.91;5037242;28;46087;-76
2023/07/05 00:57:01;;;;;;;;;13.00;13.00;;;;;38.77;41.66;100234.31;5038583;28;45472;-77
2023/07/05 00:59:31;;;;;;;;;10.25;10.00;;;;;38.90;41.74;100240.50;5039498;28;45330;-68
2023/07/05 01:01:56;;;;;;;;;10.75;10.75;;;;;39.17;41.37;100246.00;5040183;28;45281;-72
2023/07/05 01:04:22;;;;;;;;;11.00;10.50;;;;;38.93;40.16;100260.06;5039207;28;45297;-72
2023/07/05 01:06:48;;;;;;;;;9.00;9.00;;;;;39.00;40.77;100246.94;5039508;28;45322;-71
2023/07/05 01:09:13;;;;;;;;;8.75;8.75;;;;;39.01;40.29;100264.25;5039711;28;45194;-73
2023/07/05 01:11:56;;;;;;;;;10.75;10.75;;;;;39.02;39.98;100260.41;5021505;28;45326;-74
2023/07/05 01:14:35;;;;;;;;;8.50;8.50;;;;;39.14;39.88;100274.00;5038965;28;46070;-74
2023/07/05 01:17:17;;;;;;;;;11.50;11.50;;;;;38.95;40.74;100270.78;5040615;28;45518;-76
2023/07/05 01:19:56;;;;;;;;;9.00;9.00;;;;;38.91;40.40;100269.66;5039937;28;45336;-76
2023/07/05 01:22:59;;;;;;;;;8.75;8.75;;;;;38.60;39.64;100275.59;5039278;28;45402;-66
2023/07/05 01:25:52;;;;;;;;;8.00;8.00;;;;;38.80;40.54;100266.75;5006763;28;46114;-72
2023/07/05 01:28:26;;;;;;;;;8.00;8.00;;;;;38.52;39.72;100265.91;5027435;28;45379;-73
2023/07/05 01:30:51;;;;;;;;;8.00;8.00;;;;;38.60;40.08;100272.03;5037445;28;45356;-66
2023/07/05 01:33:31;;;;;;;;;7.00;7.00;;;;;38.91;39.63;100266.91;5037448;28;45514;-76
2023/07/05 01:35:57;;;;;;;;;8.00;8.00;;;;;38.89;40.29;100263.59;5038225;28;45884;-74
2023/07/05 01:38:23;;;;;;;;;6.50;6.50;;;;;38.96;40.58;100261.47;5036559;28;45332;-70
2023/07/05 01:41:00;;;;;;;;;6.00;6.00;;;;;38.92;39.89;100266.66;5039821;28;45270;-68
2023/07/05 01:43:28;;;;;;;;;8.25;8.25;;;;;38.76;40.05;100262.88;5024194;28;45331;-69
2023/07/05 01:46:21;;;;;;;;;8.00;8.00;;;;;39.11;40.14;100282.78;5021727;28;48690;-71
2023/07/05 01:48:51;;;;;;;;;9.00;9.00;;;;;39.35;39.77;100290.72;5024284;28;45422;-73
2023/07/05 01:51:34;;;;;;;;;6.25;6.25;;;;;39.38;40.22;100309.47;5039510;28;45312;-73
2023/07/05 01:54:13;;;;;;;;;5.00;5.00;;;;;39.18;39.71;100318.31;5039634;28;45262;-70
2023/07/05 01:56:48;;;;;;;;;6.00;6.00;;;;;39.33;39.61;100320.38;5039926;28;45272;-72
2023/07/05 01:59:17;;;;;;;;;4.50;4.50;;;;;39.33;39.96;100296.47;5042522;28;45365;-67
2023/07/05 02:01:45;;;;;;;;;5.50;5.50;;;;;39.50;38.95;100321.13;5026140;28;45403;-68
2023/07/05 02:04:13;;;;;;;;;4.50;4.50;;;;;39.61;39.63;100307.44;5040798;28;45370;-69
2023/07/05 02:06:41;;;;;;;;;4.00;4.00;;;;;39.57;37.82;100326.41;5041723;28;46521;-70
2023/07/05 02:09:06;;;;;;;;;6.75;6.75;;;;;39.61;38.59;100322.03;5040146;28;45285;-73
2023/07/05 02:11:32;;;;;;;;;3.75;3.75;;;;;39.71;37.68;100322.13;5040233;28;45389;-69
2023/07/05 02:13:58;;;;;;;;;4.00;4.00;;;;;39.56;38.18;100311.00;5039961;28;45344;-70
2023/07/05 02:16:23;;;;;;;;;4.00;4.00;;;;;39.46;38.76;100333.75;5022076;28;47530;-67
2023/07/05 02:18:48;;;;;;;;;5.50;5.50;;;;;39.33;39.29;100332.22;5039482;28;45376;-74
2023/07/05 02:21:14;;;;;;;;;5.25;5.25;;;;;39.21;39.08;100337.03;5039895;28;45501;-67
2023/07/05 02:23:39;;;;;;;;;3.75;3.75;;;;;39.04;38.13;100340.72;5040706;28;45590;-71
2023/07/05 02:26:06;;;;;;;;;5.75;5.75;;;;;39.13;39.16;100335.59;5022874;28;47114;-75
2023/07/05 02:28:33;;;;;;;;;4.00;4.00;;;;;39.19;39.03;100347.47;5041973;28;45274;-74
2023/07/05 02:31:06;;;;;;;;;3.75;3.75;;;;;39.12;38.33;100348.50;5025178;28;45364;-74
2023/07/05 02:33:34;;;;;;;;;6.25;6.25;;;;;39.12;38.38;100351.25;5048046;28;45348;-71
2023/07/05 02:36:07;;;;;;;;;5.50;5.50;;;;;38.98;39.58;100350.84;5024808;28;46009;-74
2023/07/05 02:38:32;;;;;;;;;4.75;4.75;;;;;38.56;38.73;100341.25;5039014;28;45231;-72
2023/07/05 02:40:57;;;;;;;;;4.50;4.50;;;;;38.66;39.07;100351.53;5039271;28;45824;-72
2023/07/05 02:43:23;;;;;;;;;3.75;3.75;;;;;38.62;38.82;100349.56;5040686;28;45227;-79
2023/07/05 02:45:48;;;;;;;;;4.00;4.00;;;;;38.56;39.20;100349.50;5041110;28;45170;-71
2023/07/05 02:48:14;;;;;;;;;4.25;4.25;;;;;38.58;38.89;100349.22;5040904;28;45252;-72
2023/07/05 02:50:39;;;;;;;;;3.50;3.50;;;;;38.39;38.97;100351.44;5041329;28;45317;-70
2023/07/05 02:53:05;;;;;;;;;3.25;3.25;;;;;38.44;39.13;100354.28;5041462;28;45361;-73
2023/07/05 02:55:30;;;;;;;;;3.25;3.25;;;;;38.48;38.98;100366.41;5040894;28;46095;-75
2023/07/05 02:57:55;;;;;;;;;3.75;3.75;;;;;38.42;38.90;100364.69;5041084;28;45351;-69
2023/07/05 03:00:21;;;;;;;;;4.00;4.00;;;;;38.27;38.29;100370.75;5039674;28;45225;-76
2023/07/05 03:02:46;;;;;;;;;3.25;3.25;;;;;38.31;37.82;100371.91;5039197;28;45475;-76
2023/07/05 03:05:13;;;;;;;;;1.25;1.25;;;;;38.37;39.05;100365.41;5039345;28;45747;-71
2023/07/05 03:07:38;;;;;;;;;3.75;3.75;;;;;38.32;38.57;100372.75;5021053;28;45453;-70
2023/07/05 03:10:07;;;;;;;;;4.00;4.00;;;;;38.43;38.03;100369.09;5039459;28;45420;-70
2023/07/05 03:12:33;;;;;;;;;4.00;4.00;;;;;38.46;39.12;100371.34;5042257;28;45250;-70
2023/07/05 03:14:58;;;;;;;;;4.50;4.50;;;;;38.47;38.09;100372.16;5042721;28;45369;-69
2023/07/05 03:17:23;;;;;;;;;3.00;3.00;;;;;38.43;38.00;100377.34;5041243;28;45319;-70
2023/07/05 03:19:50;;;;;;;;;4.00;4.00;;;;;38.36;38.54;100390.38;5021381;28;45316;-72
2023/07/05 03:22:15;;;;;;;;;3.00;3.00;;;;;38.33;37.74;100396.38;5021066;28;45407;-75
2023/07/05 03:24:41;;;;;;;;;5.00;3.00;;;;;38.38;37.68;100388.22;5038137;28;46112;-68
2023/07/05 03:27:06;;;;;;;;;1.75;1.75;;;;;38.36;37.63;100393.94;5038966;28;45368;-69
2023/07/05 03:29:32;;;;;;;;;2.00;2.00;;;;;38.22;37.68;100398.97;5039047;28;45320;-66
2023/07/05 03:31:58;;;;;;;;;2.00;2.00;;;;;38.27;37.83;100396.31;5039637;28;45319;-73
2023/07/05 03:34:23;;;;;;;;;3.00;3.00;;;;;38.38;38.10;100393.72;5039772;28;46520;-71
2023/07/05 03:36:49;;;;;;;;;3.00;3.00;;;;;38.27;38.05;100393.56;5042458;28;45328;-72
2023/07/05 03:39:15;;;;;;;;;3.25;3.25;;;;;38.34;37.26;100415.34;5042527;28;45397;-72
2023/07/05 03:41:40;;;;;;;;;2.00;2.00;;;;;38.19;36.85;100418.72;5038963;28;45413;-68
2023/07/05 03:44:06;;;;;;;;;2.00;2.00;;;;;37.92;37.74;100356.19;5039258;28;46509;-73
2023/07/05 03:46:31;;;;;;;;;2.50;2.50;;;;;38.44;37.35;100425.69;5020565;28;45600;-67
2023/07/05 03:48:56;;;;;;;;;1.00;1.00;;;;;38.44;37.18;100422.94;5038271;28;45244;-72
2023/07/05 03:51:23;;;;;;;;;3.00;3.00;;;;;38.49;37.04;100420.28;5038917;28;45316;-76
2023/07/05 03:53:53;;;;;;;;;2.00;2.00;;;;;38.70;36.83;100432.38;5038004;28;45546;-76
2023/07/05 03:56:20;;;;;;;;;3.00;3.00;;;;;38.44;35.72;100431.19;5039131;28;45371;-74
2023/07/05 03:58:46;;;;;;;;;2.00;2.00;;;;;38.60;36.43;100428.66;5041919;28;45292;-75
2023/07/05 04:01:17;;;;;;;;;4.50;4.50;;;;;38.62;36.99;100432.00;5040676;28;45564;-76
2023/07/05 04:03:44;;;;;;;;;3.00;3.00;;;;;38.71;36.46;100438.72;5037192;28;46548;-76
2023/07/05 04:06:10;;;;;;;;;3.00;3.00;;;;;38.65;36.28;100420.50;5038105;28;45396;-76
2023/07/05 04:08:36;;;;;;;;;2.00;2.00;;;;;38.62;36.77;100437.47;5038154;28;45384;-73
2023/07/05 04:11:01;;;;;;;;;2.00;2.00;;;;;38.50;36.34;100446.66;5037463;28;45332;-66
2023/07/05 04:13:26;;;;;;;;;3.75;3.75;;;;;38.56;36.30;100442.91;5037430;28;45262;-68
2023/07/05 04:15:59;;;;;;;;;3.00;2.50;;;;;38.76;36.42;100444.28;5037633;28;45451;-74
2023/07/05 04:18:25;;;;;;;;;3.00;3.00;;;;;38.69;36.06;100454.63;5038959;28;45475;-73
2023/07/05 04:20:51;;;;;;;;;2.50;2.50;;;;;38.72;34.82;100460.47;5041025;28;45923;-72
2023/07/05 04:23:16;;;;;;;;;3.00;2.50;;;;;38.70;35.55;100464.53;5019864;28;47013;-66
2023/07/05 04:25:41;;;;;;;;;3.00;3.00;;;;;38.79;35.86;100459.44;5037592;28;45186;-72
2023/07/05 04:28:07;;;;;;;;;3.00;3.00;;;;;38.82;35.59;100462.50;5037090;28;46522;-70
2023/07/05 04:30:32;;;;;;;;;3.75;3.75;;;;;38.94;35.91;100473.41;5037776;28;45253;-72
2023/07/05 04:32:58;;;;;;;;;4.25;4.25;;;;;38.96;35.55;100489.66;5037004;28;45248;-75
2023/07/05 04:35:23;;;;;;;;;3.00;3.00;;;;;38.93;35.29;100480.00;5037392;28;45354;-70
2023/07/05 04:37:49;;;;;;;;;5.00;5.00;;;;;38.97;35.49;100489.41;5037145;28;45304;-75
2023/07/05 04:40:14;;;;;;;;;3.25;3.25;;;;;38.94;35.05;100487.16;5039315;28;45517;-71
2023/07/05 04:42:40;;;;;;;;;4.00;4.00;;;;;39.01;35.59;100482.31;5020457;28;48189;-67
2023/07/05 04:45:05;;;;;;;;;5.00;5.00;;;;;39.13;35.35;100479.41;5038284;28;45368;-66
2023/07/05 04:47:31;;;;;;;;;3.75;3.50;;;;;38.95;35.14;100487.97;5037746;28;45301;-72
2023/07/05 04:49:56;;;;;;;;;5.00;5.00;;;;;38.90;35.52;100475.00;5020458;28;45808;-67
2023/07/05 04:52:21;;;;;;;;;5.00;4.50;;;;;39.04;34.32;100491.13;5037650;28;49554;-68
2023/07/05 04:54:47;;;;;;;;;5.50;5.50;;;;;39.18;35.16;100495.16;5037634;28;45414;-66
2023/07/05 04:57:12;;;;;;;;;4.00;4.00;;;;;39.23;34.95;100494.38;5037720;28;45395;-69
2023/07/05 04:59:43;;;;;;;;;6.00;6.00;;;;;37.90;37.66;100500.25;5037427;28;45372;-68
2023/07/05 05:02:09;;;;;;;;;4.50;4.50;;;;;31.49;48.87;100493.16;5037659;28;47047;-70
2023/07/05 05:04:35;;;;;;;;;4.75;4.75;;;;;30.59;49.26;100482.94;5037930;28;45320;-70
2023/07/05 05:07:01;;;;;;;;;4.50;4.50;;;;;30.71;49.38;100497.66;5039109;28;45413;-72
2023/07/05 05:09:27;;;;;;;;;5.00;5.00;;;;;30.62;49.38;100500.72;5037987;28;45608;-70
2023/07/05 05:11:52;;;;;;;;;5.50;5.50;;;;;30.61;49.46;100499.88;5036604;28;45382;-72
2023/07/05 05:14:18;;;;;;;;;5.50;5.50;;;;;30.61;49.40;100502.59;5042590;28;45370;-69
2023/07/05 05:16:43;;;;;;;;;5.50;5.25;;;;;30.64;50.00;100502.19;5041562;28;45761;-69
2023/07/05 05:19:08;;;;;;;;;4.50;4.50;;;;;30.88;49.55;100505.53;5021725;28;45585;-69
2023/07/05 05:21:34;;;;;;;;;5.75;5.75;;;;;31.00;49.37;100514.81;5038830;28;61158;-71
2023/07/05 05:23:59;;;;;;;;;7.50;7.00;;;;;30.92;49.41;100506.81;5021481;28;45365;-73
2023/07/05 05:26:24;;;;;;;;;7.50;7.50;;;;;31.09;48.88;100506.50;5021405;28;45312;-69
2023/07/05 05:28:50;;;;;;;;;7.00;7.00;;;;;31.24;47.91;100507.25;5040958;28;45265;-69
2023/07/05 05:31:15;;;;;;;;;7.25;7.25;;;;;31.14;49.00;100509.47;5020985;28;46059;-69
2023/07/05 05:33:41;;;;;;;;;5.00;5.00;;;;;31.29;49.23;100512.91;5038183;28;45455;-73
2023/07/05 05:36:06;;;;;;;;;6.50;6.50;;;;;31.34;49.11;100520.47;5038455;28;45395;-66
2023/07/05 05:38:35;;;;;;;;;4.00;4.00;;;;;31.62;49.11;100504.06;5039674;28;45479;-70
2023/07/05 05:41:08;;;;;;;;;5.25;5.25;;;;;31.85;49.58;100508.38;5039904;28;46271;-68
2023/07/05 05:43:34;;;;;;;;;5.75;5.75;;;;;31.91;48.64;100509.44;5039462;28;45278;-66
2023/07/05 05:45:59;;;;;;;;;5.00;5.00;;;;;31.94;48.53;100519.09;5020749;28;45329;-73
2023/07/05 05:48:26;;;;;;;;;5.25;5.25;;;;;31.97;48.89;100511.34;5038940;28;45312;-69
2023/07/05 05:50:52;;;;;;;;;5.75;4.75;;;;;32.01;49.25;100520.75;5039495;28;45497;-66
2023/07/05 05:53:17;;;;;;;;;4.25;4.25;;;;;31.95;48.61;100515.31;5038863;28;45298;-70
2023/07/05 05:55:42;;;;;;;;;6.50;6.50;;;;;31.89;49.24;100517.81;5038050;28;45406;-73
2023/07/05 05:58:08;;;;;;;;;5.50;5.50;;;;;31.93;50.00;100522.84;5037524;28;50918;-71
2023/07/05 06:00:34;;;;;;;;;5.75;5.75;;;;;32.03;49.23;100523.28;5037865;28;46147;-67
2023/07/05 06:02:59;;;;;;;;;6.00;6.00;;;;;31.95;48.59;100528.91;5037488;28;45328;-67
2023/07/05 06:05:25;;;;;;;;;6.50;5.25;;;;;32.03;49.10;100536.88;5037780;28;45440;-66
2023/07/05 06:07:52;;;;;;;;;6.00;6.00;;;;;32.02;48.74;100538.75;5038055;28;45568;-66
2023/07/05 06:10:17;;;;;;;;;4.75;4.75;;;;;31.93;48.19;100539.97;5037616;28;46328;-66
2023/07/05 06:12:42;;;;;;;;;4.00;4.00;;;;;32.00;49.01;100540.00;5037417;28;45280;-68
2023/07/05 06:15:13;;;;;;;;;3.00;3.00;;;;;32.09;48.92;100543.38;5038314;28;45304;-73
2023/07/05 06:17:39;;;;;;;;;6.00;6.00;;;;;32.07;49.96;100508.22;5040312;28;45351;-67
2023/07/05 06:20:07;;;;;;;;;6.00;6.00;;;;;32.36;48.34;100544.31;5038442;28;46142;-69
2023/07/05 06:22:37;;;;;;;;;9.00;8.00;;;;;32.45;48.59;100550.41;5039988;28;45291;-70
2023/07/05 06:25:03;;;;;;;;;4.00;4.00;;;;;32.44;48.92;100546.81;5038724;28;45355;-69
2023/07/05 06:27:29;;;;;;;;;7.00;7.00;;;;;32.75;48.77;100550.81;5037506;28;45399;-75
2023/07/05 06:29:55;;;;;;;;;4.00;4.00;;;;;32.87;47.96;100537.44;5019247;28;46140;-75
2023/07/05 06:32:20;;;;;;;;;4.75;4.75;;;;;33.06;46.58;100549.38;5037360;28;45340;-69
2023/07/05 06:34:46;;;;;;;;;6.50;6.00;;;;;33.10;48.16;100565.28;5038220;28;45363;-75
2023/07/05 06:37:11;;;;;;;;;4.00;4.00;;;;;33.02;46.46;100514.56;5040418;28;45524;-75
2023/07/05 06:39:37;;;;;;;;;5.00;5.00;;;;;33.17;47.33;100533.41;5039237;28;46347;-75
2023/07/05 06:42:03;;;;;;;;;5.25;5.25;;;;;33.46;47.82;100548.47;5040199;28;45305;-69
2023/07/05 06:44:29;;;;;;;;;7.00;6.50;;;;;33.49;47.09;100549.91;5042696;28;45287;-71
2023/07/05 06:46:54;;;;;;;;;4.50;4.50;;;;;33.65;47.46;100565.78;5038269;28;45529;-74
2023/07/05 06:49:20;;;;;;;;;5.00;5.00;;;;;34.02;47.67;100567.16;5019820;28;46078;-72
2023/07/05 06:51:47;;;;;;;;;5.00;5.00;;;;;34.39;47.04;100570.06;5028510;28;45182;-75
2023/07/05 06:54:12;;;;;;;;;4.75;4.75;;;;;34.37;46.75;100569.44;5038432;28;45390;-71
2023/07/05 06:56:37;;;;;;;;;5.75;5.75;;;;;34.33;46.41;100568.22;5038390;28;45537;-73
2023/07/05 06:59:03;;;;;;;;;6.00;6.00;;;;;34.47;47.19;100579.94;5037879;28;46376;-74
2023/07/05 07:01:28;;;;;;;;;5.00;5.00;;;;;34.48;46.02;100584.34;5020746;28;45355;-67
2023/07/05 07:03:54;;;;;;;;;6.00;6.00;;;;;34.38;45.80;100591.06;5040397;28;45296;-71
2023/07/05 07:06:19;;;;;;;;;5.50;5.50;;;;;34.31;46.46;100597.63;5024187;28;44925;-70
2023/07/05 07:08:45;;;;;;;;;4.00;4.00;;;;;34.35;46.29;100598.88;5038433;28;45364;-70
2023/07/05 07:11:12;;;;;;;;;3.75;3.75;;;;;34.27;46.79;100604.59;5038279;28;45450;-76
2023/07/05 07:13:38;;;;;;;;;5.00;5.00;;;;;34.15;46.99;100605.28;5019789;28;45361;-76
2023/07/05 07:16:05;;;;;;;;;5.25;5.25;;;;;34.22;45.41;100600.63;5037219;28;45514;-72
2023/07/05 07:18:31;;;;;;;;;4.00;4.00;;;;;33.93;46.37;100591.06;5037398;28;45338;-72
2023/07/05 07:20:58;;;;;;;;;6.00;6.00;;;;;34.02;47.06;100611.63;5037645;28;45411;-70
2023/07/05 07:23:23;;;;;;;;;5.50;5.50;;;;;34.06;46.43;100618.31;5039791;28;44769;-72
2023/07/05 07:26:04;;;;;;;;;3.00;3.00;;;;;33.96;46.91;100617.13;5038461;28;45269;-72
2023/07/05 07:28:30;;;;;;;;;6.00;6.00;;;;;33.99;46.58;100625.72;5036887;28;45485;-73
2023/07/05 07:30:56;;;;;;;;;5.00;5.00;;;;;33.85;46.68;100621.34;5039377;28;45389;-71
2023/07/05 07:33:21;;;;;;;;;5.00;5.00;;;;;33.90;46.51;100625.06;5038194;28;45297;-67
2023/07/05 07:35:48;;;;;;;;;5.00;5.00;;;;;33.95;46.66;100621.75;5037832;28;45602;-69
2023/07/05 07:38:14;;;;;;;;;8.00;6.00;;;;;34.36;47.19;100627.84;5037236;28;46249;-69
2023/07/05 07:40:39;;;;;;;;;4.25;4.25;;;;;34.38;46.80;100636.66;5037222;28;45369;-72
2023/07/05 07:43:06;;;;;;;;;4.50;4.50;;;;;34.78;46.23;100635.59;5039326;28;45377;-69
2023/07/05 07:45:32;;;;;;;;;5.00;4.00;;;;;34.93;46.04;100637.97;5039112;28;45167;-75
2023/07/05 07:47:58;;;;;;;;;4.00;4.00;;;;;35.02;46.22;100641.31;5037688;28;45289;-71
2023/07/05 07:50:23;;;;;;;;;4.00;4.00;;;;;35.05;45.76;100638.13;5037421;28;45313;-70
2023/07/05 07:52:49;;;;;;;;;8.25;7.25;;;;;35.03;42.99;100657.50;5037383;28;45328;-70
2023/07/05 07:55:14;;;;;;;;;6.25;6.25;;;;;35.07;45.91;100658.72;5018926;28;45327;-77
2023/07/05 07:57:40;;;;;;;;;4.75;4.75;;;;;35.07;44.56;100644.19;5036244;28;46411;-77
2023/07/05 08:00:09;;;;;;;;;5.25;5.25;;;;;35.31;45.98;100660.81;5036617;28;45304;-73
2023/07/05 08:02:35;;;;;;;;;6.25;6.25;;;;;35.35;45.40;100640.16;5036697;28;45357;-73
2023/07/05 08:05:00;;;;;;;;;5.00;5.00;;;;;35.49;45.24;100652.66;5039109;28;45285;-77
2023/07/05 08:07:26;;;;;;;;;2.75;2.75;;;;;35.69;45.88;100643.44;5039823;28;45230;-73
2023/07/05 08:09:54;;;;;;;;;6.00;5.75;;;;;36.03;43.97;100645.78;5038766;28;45443;-71
2023/07/05 08:12:20;;;;;;;;;5.50;5.50;;;;;35.81;45.17;100624.31;5035931;28;45177;-69
2023/07/05 08:14:45;;;;;;;;;6.00;6.00;;;;;35.74;43.59;100635.38;5019002;28;45473;-73
2023/07/05 08:17:10;;;;;;;;;4.00;4.00;;;;;35.80;44.61;100628.97;5037770;28;45661;-74
2023/07/05 08:19:36;;;;;;;;;5.25;5.25;;;;;35.52;44.55;100640.44;5018954;28;48461;-69
2023/07/05 08:22:02;;;;;;;;;5.00;5.00;;;;;35.73;44.15;100630.09;5036293;28;45282;-70
2023/07/05 08:24:29;;;;;;;;;3.75;3.75;;;;;35.96;44.51;100635.72;5036731;28;45561;-70
2023/07/05 08:26:55;;;;;;;;;6.00;6.00;;;;;36.07;43.64;100633.31;5036908;28;45308;-75
2023/07/05 08:29:22;;;;;;;;;5.00;5.00;;;;;36.07;43.34;100630.59;5021265;28;45422;-67
2023/07/05 08:31:48;;;;;;;;;6.75;5.25;;;;;35.96;44.73;100632.97;5036961;28;45383;-66
2023/07/05 08:34:14;;;;;;;;;5.00;5.00;;;;;36.15;43.92;100651.31;5036209;28;45515;-70
2023/07/05 08:36:41;;;;;;;;;5.00;5.00;;;;;36.20;43.04;100657.78;5035633;28;45255;-67
2023/07/05 08:39:08;;;;;;;;;6.50;6.50;;;;;36.35;43.59;100656.53;5035645;28;45353;-65
2023/07/05 08:41:43;;;;;;;;;5.25;5.25;;;;;36.46;43.38;100661.22;5035559;28;45433;-75
2023/07/05 08:44:22;;;;;;;;;5.25;5.25;;;;;36.88;44.25;100663.16;5036407;28;45353;-71
2023/07/05 08:47:11;;;;;;;;;5.00;5.00;;;;;37.32;43.51;100672.97;5036842;28;46352;-72
2023/07/05 08:49:48;;;;;;;;;4.00;4.00;;;;;37.52;42.98;100665.25;5038042;28;45405;-70
2023/07/05 08:52:27;;;;;;;;;4.75;4.75;;;;;37.69;43.79;100678.25;5042409;28;45371;-67
2023/07/05 08:55:04;;;;;;;;;6.00;6.00;;;;;38.03;43.01;100691.31;5048601;28;45242;-67
2023/07/05 08:57:35;;;;;;;;;4.00;4.00;;;;;37.56;40.44;100690.31;5051827;28;46382;-69
2023/07/05 09:00:11;;;;;;;;;4.00;4.00;;;;;37.39;41.93;100699.22;5044981;28;44790;-73
2023/07/05 09:02:37;;;;;;;;;5.00;5.00;;;;;37.31;41.91;100690.50;5026222;28;45339;-70
2023/07/05 09:05:04;;;;;;;;;4.00;4.00;;;;;36.91;40.25;100690.09;5041990;28;45213;-71
2023/07/05 09:07:49;;;;;;;;;4.00;4.00;;;;;36.58;42.07;100690.56;5040919;28;45267;-73
2023/07/05 09:10:34;;;;;;;;;4.50;4.50;;;;;36.75;43.46;100680.63;5040702;28;45318;-72
2023/07/05 09:13:21;;;;;;;;;6.75;6.75;;;;;37.02;42.57;100685.69;5040500;28;45205;-70
2023/07/05 09:16:00;;;;;;;;;5.00;5.00;;;;;36.69;42.21;100673.34;5042107;28;45422;-68
2023/07/05 09:18:50;;;;;;;;;7.00;7.00;;;;;36.54;42.54;100673.75;5023507;28;46201;-68
2023/07/05 09:21:18;;;;;;;;;6.00;6.00;;;;;36.76;42.96;100687.78;5023599;28;45296;-67
2023/07/05 09:23:51;;;;;;;;;6.00;6.00;;;;;37.11;41.53;100677.97;5040946;28;45437;-70
2023/07/05 09:26:34;;;;;;;;;3.00;3.00;;;;;37.27;41.02;100676.44;5022508;28;45598;-67
2023/07/05 09:29:15;;;;;;;;;5.00;5.00;;;;;37.50;42.45;100680.28;5039954;28;46229;-70
2023/07/05 09:31:43;;;;;;;;;6.00;6.00;;;;;37.54;41.23;100686.97;5041464;28;45508;-68
2023/07/05 09:34:27;;;;;;;;;5.00;5.00;;;;;37.59;41.75;100678.84;5041498;28;45194;-66
2023/07/05 09:36:53;;;;;;;;;6.00;6.00;;;;;37.64;42.26;100683.59;5023311;28;45539;-68
2023/07/05 09:39:52;;;;;;;;;4.50;4.50;;;;;38.31;41.65;100686.94;5041922;28;46564;-72
2023/07/05 09:42:26;;;;;;;;;5.00;5.00;;;;;37.94;41.04;100672.47;5022232;28;45401;-69
2023/07/05 09:44:51;;;;;;;;;5.25;5.25;;;;;38.05;40.89;100680.94;5040419;28;45234;-74
2023/07/05 09:47:18;;;;;;;;;5.00;5.00;;;;;37.99;40.49;100683.56;5040537;28;45255;-66
2023/07/05 09:49:44;;;;;;;;;6.25;6.25;;;;;37.95;41.13;100682.38;5041361;28;45418;-80
2023/07/05 09:52:13;;;;;;;;;5.25;5.25;;;;;37.69;40.46;100670.84;5041371;28;45238;-74
2023/07/05 09:54:40;;;;;;;;;5.25;5.25;;;;;37.42;40.05;100685.03;5023638;28;45335;-67
2023/07/05 09:57:09;;;;;;;;;9.50;9.50;;;;;37.01;40.88;100688.69;5042497;28;45238;-77
2023/07/05 09:59:38;;;;;;;;;8.00;8.00;;;;;36.83;41.82;100699.47;5042667;28;45314;-74
2023/07/05 10:02:10;;;;;;;;;6.25;6.25;;;;;37.15;41.72;100695.63;5043309;28;45371;-71
2023/07/05 10:04:52;;;;;;;;;6.00;6.00;;;;;37.42;39.91;100678.69;5050704;28;45290;-71
2023/07/05 10:07:24;;;;;;;;;7.50;7.50;;;;;37.98;40.36;100692.88;5026431;28;45339;-74
2023/07/05 10:09:55;;;;;;;;;6.00;6.00;;;;;38.34;39.63;100702.94;5042326;28;46449;-69
2023/07/05 10:12:24;;;;;;;;;7.75;7.75;;;;;38.22;37.51;100689.25;5043835;28;45386;-75
2023/07/05 10:14:56;;;;;;;;;5.00;5.00;;;;;38.72;39.57;100698.72;5045617;28;45247;-71
2023/07/05 10:17:22;;;;;;;;;5.00;5.00;;;;;38.79;37.76;100695.81;5045222;28;45374;-75
2023/07/05 10:19:50;;;;;;;;;4.25;4.25;;;;;38.41;37.02;100709.97;5042466;28;45166;-84
2023/07/05 10:22:22;;;;;;;;;5.25;4.75;;;;;38.69;38.03;100707.47;5028486;28;45701;-69
2023/07/05 10:24:51;;;;;;;;;7.00;7.00;;;;;38.92;37.80;100700.19;5052215;28;45284;-70
2023/07/05 10:27:40;;;;;;;;;11.50;11.50;;;;;38.84;36.30;100710.47;5046809;28;45573;-74
2023/07/05 10:30:13;;;;;;;;;4.75;4.75;;;;;38.87;36.20;100720.97;5042246;28;46204;-77
2023/07/05 10:32:45;;;;;;;;;5.25;5.25;;;;;38.96;36.30;100704.09;5044297;28;45435;-71
2023/07/05 10:35:28;;;;;;;;;6.50;6.50;;;;;39.51;35.87;100712.69;5047935;28;44761;-67
2023/07/05 10:37:55;;;;;;;;;6.50;6.50;;;;;39.67;35.51;100716.50;5029304;28;45347;-74
2023/07/05 10:40:22;;;;;;;;;5.25;5.25;;;;;39.98;34.70;100712.25;5024497;28;47506;-75
2023/07/05 10:42:53;;;;;;;;;4.25;4.25;;;;;40.33;34.59;100718.50;5043908;28;45217;-76
2023/07/05 10:45:22;;;;;;;;;6.00;6.00;;;;;40.51;34.69;100698.03;5045742;28;45262;-70
2023/07/05 10:47:53;;;;;;;;;4.25;4.25;;;;;40.45;34.33;100697.13;5033385;28;45547;-70
2023/07/05 10:50:34;;;;;;;;;6.00;6.00;;;;;40.12;32.93;100709.13;5052999;28;45340;-69
2023/07/05 10:53:23;;;;;;;;;4.00;4.00;;;;;39.83;32.86;100707.41;5053337;28;45379;-75
2023/07/05 10:56:11;;;;;;;;;7.00;7.00;;;;;39.53;32.44;100713.28;5032618;28;44759;-68
2023/07/05 10:58:45;;;;;;;;;4.75;4.75;;;;;39.42;33.90;100710.38;5028393;28;45369;-75
2023/07/05 11:01:24;;;;;;;;;6.00;6.00;;;;;39.51;34.34;100708.00;5029656;28;47049;-77
2023/07/05 11:04:05;;;;;;;;;5.25;5.25;;;;;39.01;32.35;100709.69;5044482;28;45410;-72
2023/07/05 11:06:35;;;;;;;;;5.50;5.50;;;;;38.64;33.74;100693.63;5041902;28;45274;-71
2023/07/05 11:09:02;;;;;;;;;4.50;4.50;;;;;38.98;34.75;100707.44;5028195;28;45239;-82
2023/07/05 11:11:32;;;;;;;;;8.00;8.00;;;;;38.94;33.97;100700.78;5044000;28;45319;-74
2023/07/05 11:14:07;;;;;;;;;5.00;5.00;;;;;38.57;33.53;100704.75;5043154;28;45446;-75
2023/07/05 11:16:34;;;;;;;;;6.50;6.50;;;;;38.66;34.22;100696.97;5045538;28;45397;-79
2023/07/05 11:19:10;;;;;;;;;5.50;5.50;;;;;39.09;33.63;100692.75;5043715;28;45385;-72
2023/07/05 11:21:49;;;;;;;;;10.00;10.00;;;;;39.43;33.74;100702.94;5021116;28;46782;-68
2023/07/05 11:24:36;;;;;;;;;8.25;8.25;;;;;40.27;33.47;100694.72;5038922;28;45186;-69
2023/07/05 11:27:24;;;;;;;;;6.00;6.00;;;;;40.49;32.40;100691.09;5041629;28;45243;-67
2023/07/05 11:29:54;;;;;;;;;5.00;5.00;;;;;40.68;33.07;100691.56;5025024;28;45576;-71
2023/07/05 11:32:26;;;;;;;;;6.75;6.75;;;;;40.69;32.66;100696.00;5027008;28;48104;-78